Time;durP1;ratioP1;P1;durP2;ratioP2;P2;SDS_P1;SDS_P2;PMS_P1;PMS_P2;Temp;Humidity;BMP_temperature;BMP_pressure;BME280_temperature;BME280_humidity;BME280_pressure;Samples;Min_cycle;Max_cycle;Signal;HPM_P1;HPM_P2
2024/04/02 00:02:10;;;;;;;1.90;1.07;;;10.00;99.90;;;;;;5025481;28;20469;-73
2024/04/02 00:04:55;;;;;;;2.27;1.00;;;10.00;99.90;;;;;;5025997;28;20493;-73
2024/04/02 00:07:40;;;;;;;3.53;1.07;;;10.10;99.90;;;;;;5025729;28;20437;-73
2024/04/02 00:10:27;;;;;;;2.50;1.33;;;10.10;99.90;;;;;;5023748;28;20428;-73
2024/04/02 00:13:12;;;;;;;2.10;1.13;;;10.10;99.90;;;;;;5024724;28;20452;-73
2024/04/02 00:15:58;;;;;;;2.20;1.17;;;10.00;99.90;;;;;;5022363;28;20476;-73
2024/04/02 00:18:42;;;;;;;1.70;1.10;;;9.90;99.90;;;;;;5023689;28;20453;-73
2024/04/02 00:21:28;;;;;;;2.13;1.13;;;9.90;99.90;;;;;;5023440;28;20543;-73
2024/04/02 00:24:12;;;;;;;6.73;1.23;;;9.90;99.90;;;;;;5020408;28;20483;-73
2024/04/02 00:26:59;;;;;;;5.60;1.40;;;9.80;99.90;;;;;;5027128;28;20467;-73
2024/04/02 00:29:44;;;;;;;2.00;1.13;;;9.90;99.90;;;;;;5024592;28;20458;-73
2024/04/02 00:32:30;;;;;;;3.57;1.10;;;9.90;99.90;;;;;;5026302;28;20550;-73
2024/04/02 00:35:15;;;;;;;2.57;1.13;;;9.90;99.90;;;;;;5024861;28;20446;-73
2024/04/02 00:38:01;;;;;;;2.73;1.10;;;10.00;99.90;;;;;;5024936;28;20863;-73
2024/04/02 00:40:45;;;;;;;2.33;1.10;;;10.00;99.90;;;;;;5023090;28;20483;-72
2024/04/02 00:43:32;;;;;;;2.03;0.80;;;10.00;99.90;;;;;;5024791;28;20446;-73
2024/04/02 00:46:17;;;;;;;2.43;0.93;;;10.00;99.90;;;;;;5026238;28;20488;-73
2024/04/02 00:49:02;;;;;;;2.30;0.97;;;10.00;99.90;;;;;;5023182;28;20450;-73
2024/04/02 00:51:47;;;;;;;2.07;0.70;;;10.00;99.90;;;;;;5022846;28;20486;-73
2024/04/02 00:54:34;;;;;;;2.23;1.10;;;10.10;99.90;;;;;;5020887;28;20480;-73
2024/04/02 00:57:20;;;;;;;5.40;1.20;;;10.00;99.90;;;;;;5023444;28;20425;-73
2024/04/02 01:00:07;;;;;;;1.70;0.80;;;10.00;99.90;;;;;;5024179;28;20457;-73
2024/04/02 01:02:53;;;;;;;2.87;1.00;;;10.10;99.90;;;;;;5021415;28;20690;-73
2024/04/02 01:05:39;;;;;;;2.53;1.13;;;10.00;99.90;;;;;;5016733;28;20553;-73
2024/04/02 01:08:25;;;;;;;4.90;1.37;;;10.10;99.90;;;;;;5014494;28;20455;-73
2024/04/02 01:11:10;;;;;;;2.27;1.00;;;10.10;99.90;;;;;;5014714;28;20441;-73
2024/04/02 01:13:56;;;;;;;1.40;0.77;;;10.10;99.90;;;;;;5017599;28;20441;-72
2024/04/02 01:16:42;;;;;;;3.80;1.20;;;10.10;99.90;;;;;;5018924;28;20464;-73
2024/04/02 01:19:28;;;;;;;3.07;1.10;;;10.10;99.90;;;;;;5024675;28;20435;-73
2024/04/02 01:22:13;;;;;;;3.27;1.00;;;9.90;99.90;;;;;;5017745;28;20576;-73
2024/04/02 01:24:59;;;;;;;2.97;0.93;;;9.90;99.90;;;;;;5016057;28;20435;-73
2024/04/02 01:27:46;;;;;;;1.50;0.83;;;10.00;99.90;;;;;;5012281;28;20482;-73
2024/04/02 01:30:31;;;;;;;1.90;1.07;;;10.00;99.90;;;;;;5021921;28;20594;-72
2024/04/02 01:33:17;;;;;;;2.17;1.10;;;10.00;99.90;;;;;;5022734;28;20598;-73
2024/04/02 01:36:03;;;;;;;6.33;1.10;;;10.00;99.90;;;;;;5027061;28;20498;-72
2024/04/02 01:38:47;;;;;;;4.50;1.10;;;10.00;99.90;;;;;;5022639;28;20458;-72
2024/04/02 01:41:33;;;;;;;6.63;1.10;;;10.00;99.90;;;;;;5018899;28;20584;-73
2024/04/02 01:44:19;;;;;;;2.60;1.20;;;9.90;99.90;;;;;;5021004;28;20888;-73
2024/04/02 01:47:05;;;;;;;2.13;1.13;;;9.80;99.90;;;;;;5020592;28;20451;-73
2024/04/02 01:49:49;;;;;;;3.20;1.17;;;9.70;99.90;;;;;;5025247;28;20529;-73
2024/04/02 01:52:35;;;;;;;11.80;1.30;;;9.60;99.90;;;;;;5025481;28;20471;-73
2024/04/02 01:55:20;;;;;;;2.00;1.13;;;9.60;99.90;;;;;;5025742;28;21030;-73
2024/04/02 01:58:05;;;;;;;1.60;0.80;;;9.60;99.90;;;;;;5022209;28;20495;-73
2024/04/02 02:00:51;;;;;;;3.30;1.23;;;9.70;99.90;;;;;;5027023;28;20447;-73
2024/04/02 02:03:37;;;;;;;2.57;1.23;;;9.70;99.90;;;;;;5025437;28;20436;-73
2024/04/02 02:06:22;;;;;;;2.73;1.07;;;9.70;99.90;;;;;;5025901;28;20438;-73
2024/04/02 02:09:09;;;;;;;4.37;1.20;;;9.60;99.90;;;;;;5026547;28;20451;-73
2024/04/02 02:11:54;;;;;;;3.70;1.10;;;9.70;99.90;;;;;;5022717;28;21072;-73
2024/04/02 02:14:39;;;;;;;3.27;1.63;;;9.70;99.90;;;;;;5026041;28;20479;-73
2024/04/02 02:17:25;;;;;;;2.90;1.43;;;9.70;99.90;;;;;;5025196;28;20485;-73
2024/04/02 02:20:11;;;;;;;8.13;1.60;;;9.70;99.90;;;;;;5025497;28;20988;-73
2024/04/02 02:22:55;;;;;;;7.63;2.07;;;9.70;99.90;;;;;;5023282;28;20542;-73
2024/04/02 02:25:42;;;;;;;3.60;1.27;;;9.60;99.90;;;;;;5025604;28;20421;-73
2024/04/02 02:28:26;;;;;;;4.37;1.07;;;9.50;99.90;;;;;;5027303;28;20450;-72
2024/04/02 02:31:12;;;;;;;5.87;1.57;;;9.50;99.90;;;;;;5023783;28;20888;-73
2024/04/02 02:33:58;;;;;;;6.03;1.60;;;9.50;99.90;;;;;;5024623;28;20450;-73
2024/04/02 02:36:43;;;;;;;2.53;0.97;;;9.50;99.90;;;;;;5024878;28;21156;-73
2024/04/02 02:39:28;;;;;;;3.17;1.20;;;9.40;99.90;;;;;;5026502;28;20463;-73
2024/04/02 02:42:14;;;;;;;2.87;1.50;;;9.50;99.90;;;;;;5023922;28;20469;-73
2024/04/02 02:44:59;;;;;;;4.73;1.30;;;9.50;99.90;;;;;;5025427;28;20534;-73
2024/04/02 02:47:44;;;;;;;2.43;0.93;;;9.40;99.90;;;;;;5025059;28;20441;-73
2024/04/02 02:50:30;;;;;;;2.07;1.00;;;9.40;99.90;;;;;;5021367;28;20613;-73
2024/04/02 02:53:16;;;;;;;3.83;1.17;;;9.40;99.90;;;;;;5026065;28;20520;-72
2024/04/02 02:56:00;;;;;;;3.43;1.13;;;9.40;99.90;;;;;;5020230;28;20485;-73
2024/04/02 02:58:46;;;;;;;3.03;0.93;;;9.50;99.90;;;;;;5027239;28;20463;-73
2024/04/02 03:01:31;;;;;;;4.60;1.33;;;9.50;99.90;;;;;;5020893;28;20479;-73
2024/04/02 03:04:16;;;;;;;3.67;1.07;;;9.50;99.90;;;;;;5022337;28;20535;-74
2024/04/02 03:07:03;;;;;;;2.37;1.20;;;9.50;99.90;;;;;;5023470;28;20486;-73
2024/04/02 03:09:48;;;;;;;1.97;1.00;;;9.50;99.90;;;;;;5021895;28;20531;-74
2024/04/02 03:12:33;;;;;;;2.37;1.37;;;9.50;99.90;;;;;;5027046;28;20486;-73
2024/04/02 03:15:19;;;;;;;2.20;1.10;;;9.60;99.90;;;;;;5023208;28;20475;-73
2024/04/02 03:18:04;;;;;;;3.03;1.37;;;9.50;99.90;;;;;;5023182;28;20455;-73
2024/04/02 03:20:49;;;;;;;3.40;0.93;;;9.50;99.90;;;;;;5024770;28;21542;-73
2024/04/02 03:23:35;;;;;;;2.33;1.00;;;9.50;99.90;;;;;;5024261;28;20983;-74
2024/04/02 03:26:21;;;;;;;5.23;2.10;;;9.60;99.90;;;;;;5021242;28;20487;-73
2024/04/02 03:29:05;;;;;;;3.67;0.80;;;9.60;99.90;;;;;;5021657;28;20463;-74
2024/04/02 03:31:51;;;;;;;1.60;0.90;;;9.60;99.90;;;;;;5018649;28;20491;-73
2024/04/02 03:34:36;;;;;;;3.97;1.10;;;9.60;99.90;;;;;;5024304;28;20483;-73
2024/04/02 03:37:22;;;;;;;2.73;0.83;;;9.60;99.90;;;;;;5024365;28;20447;-74
2024/04/02 03:40:09;;;;;;;1.87;0.90;;;9.60;99.90;;;;;;5022552;28;20975;-73
2024/04/02 03:42:55;;;;;;;2.67;1.00;;;9.70;99.90;;;;;;5022131;28;20479;-74
2024/04/02 03:45:41;;;;;;;2.00;1.13;;;9.70;99.90;;;;;;5019534;28;20971;-74
2024/04/02 03:48:26;;;;;;;3.13;0.90;;;9.70;99.90;;;;;;5018128;28;20582;-73
2024/04/02 03:51:12;;;;;;;2.03;0.90;;;9.70;99.90;;;;;;5019771;28;20841;-74
2024/04/02 03:53:56;;;;;;;5.03;1.20;;;9.70;99.90;;;;;;5019690;28;20549;-73
2024/04/02 03:56:44;;;;;;;5.63;1.70;;;9.70;99.90;;;;;;5024309;28;20450;-73
2024/04/02 03:59:29;;;;;;;2.50;1.37;;;9.60;99.90;;;;;;5022887;28;20424;-74
2024/04/02 04:02:15;;;;;;;1.50;0.97;;;9.70;99.90;;;;;;5022508;28;20485;-73
2024/04/02 04:04:59;;;;;;;3.17;1.10;;;9.70;99.90;;;;;;5020735;28;20506;-73
2024/04/02 04:07:45;;;;;;;8.90;1.90;;;9.70;99.90;;;;;;5022893;28;20901;-74
2024/04/02 04:10:30;;;;;;;2.73;1.23;;;9.70;99.90;;;;;;5021547;28;21132;-74
2024/04/02 04:13:17;;;;;;;2.90;1.50;;;9.70;99.90;;;;;;5023367;28;20800;-74
2024/04/02 04:16:04;;;;;;;2.33;1.20;;;9.70;99.90;;;;;;5015419;28;20481;-73
2024/04/02 04:18:49;;;;;;;2.53;1.10;;;9.80;99.90;;;;;;5021348;28;20482;-74
2024/04/02 04:21:34;;;;;;;1.90;1.00;;;9.80;99.90;;;;;;5022833;28;20556;-73
2024/04/02 04:24:23;;;;;;;3.50;0.87;;;9.80;99.90;;;;;;5020376;28;20472;-74
2024/04/02 04:27:07;;;;;;;2.60;0.93;;;9.70;99.90;;;;;;5016419;28;20454;-73
2024/04/02 04:29:54;;;;;;;1.70;0.90;;;9.80;99.90;;;;;;5019135;28;20881;-73
2024/04/02 04:32:39;;;;;;;3.20;1.23;;;9.70;99.90;;;;;;5021160;28;20874;-73
2024/04/02 04:35:25;;;;;;;2.37;1.00;;;9.70;99.90;;;;;;5020863;28;20514;-73
2024/04/02 04:38:09;;;;;;;2.53;1.20;;;9.70;99.90;;;;;;5020532;28;20459;-73
2024/04/02 04:40:55;;;;;;;2.37;0.97;;;9.60;99.90;;;;;;5019974;28;20499;-73
2024/04/02 04:43:40;;;;;;;4.63;2.10;;;9.60;99.90;;;;;;5022401;28;20794;-73
2024/04/02 04:46:27;;;;;;;6.53;0.90;;;9.60;99.90;;;;;;5022302;28;20443;-73
2024/04/02 04:49:11;;;;;;;2.70;1.00;;;9.70;99.90;;;;;;5024018;28;20455;-74
2024/04/02 04:51:57;;;;;;;3.47;1.57;;;9.70;99.90;;;;;;5021979;28;21000;-74
2024/04/02 04:54:42;;;;;;;3.83;1.20;;;9.80;99.90;;;;;;5025389;28;20463;-74
2024/04/02 04:57:27;;;;;;;1.90;1.00;;;9.80;99.90;;;;;;5018654;28;20597;-74
2024/04/02 05:00:13;;;;;;;3.10;1.10;;;9.80;99.90;;;;;;5027406;28;20851;-71
2024/04/02 05:03:00;;;;;;;1.90;1.00;;;9.80;99.90;;;;;;5024792;28;20479;-73
2024/04/02 05:05:44;;;;;;;4.60;1.50;;;9.80;99.90;;;;;;5026716;28;20439;-73
2024/04/02 05:08:33;;;;;;;2.50;1.20;;;9.80;99.90;;;;;;5022291;28;20450;-74
2024/04/02 05:11:18;;;;;;;3.63;1.40;;;9.80;99.90;;;;;;5023014;28;20475;-73
2024/04/02 05:14:04;;;;;;;2.57;1.27;;;9.80;99.90;;;;;;5021887;28;20519;-73
2024/04/02 05:16:49;;;;;;;3.00;1.30;;;9.70;99.90;;;;;;5024776;28;21145;-72
2024/04/02 05:19:36;;;;;;;4.43;1.57;;;9.70;99.90;;;;;;5024126;28;20420;-73
2024/04/02 05:22:20;;;;;;;4.90;1.47;;;9.70;99.90;;;;;;5028144;28;21013;-73
2024/04/02 05:25:07;;;;;;;5.67;2.13;;;9.70;99.90;;;;;;5027445;28;20555;-72
2024/04/02 05:27:52;;;;;;;4.70;1.90;;;9.70;99.90;;;;;;5028945;28;20433;-73
2024/04/02 05:30:38;;;;;;;5.50;1.37;;;9.70;99.90;;;;;;5028320;28;20421;-72
2024/04/02 05:33:23;;;;;;;3.20;1.30;;;9.70;99.90;;;;;;5027863;28;20431;-73
2024/04/02 05:36:10;;;;;;;2.10;1.10;;;9.60;99.90;;;;;;5024152;28;20510;-73
2024/04/02 05:38:55;;;;;;;2.23;1.10;;;9.70;99.90;;;;;;5027719;28;20435;-72
2024/04/02 05:41:41;;;;;;;1.80;1.10;;;9.70;99.90;;;;;;5030347;28;20442;-72
2024/04/02 05:44:25;;;;;;;2.60;1.23;;;9.70;99.90;;;;;;5024582;28;20444;-73
2024/04/02 05:47:11;;;;;;;3.80;1.23;;;9.80;99.90;;;;;;5029341;28;20578;-72
2024/04/02 05:49:56;;;;;;;4.33;1.47;;;9.80;99.90;;;;;;5028004;28;20859;-73
2024/04/02 05:52:43;;;;;;;3.33;1.30;;;9.90;99.90;;;;;;5028151;28;20840;-73
2024/04/02 05:55:27;;;;;;;2.10;1.10;;;9.80;99.90;;;;;;5026145;28;20833;-73
2024/04/02 05:58:13;;;;;;;4.03;2.23;;;9.80;99.90;;;;;;5028317;28;20441;-72
2024/04/02 06:01:02;;;;;;;3.17;1.07;;;9.80;99.90;;;;;;5029619;28;20435;-73
2024/04/02 06:03:48;;;;;;;3.00;1.80;;;9.80;99.90;;;;;;5028553;28;20427;-74
2024/04/02 06:06:33;;;;;;;1.80;0.90;;;9.80;99.90;;;;;;5029645;28;20493;-74
2024/04/02 06:09:21;;;;;;;3.03;1.17;;;9.80;99.90;;;;;;5023754;28;20944;-73
2024/04/02 06:12:06;;;;;;;3.33;1.10;;;9.80;99.90;;;;;;5027314;28;20992;-73
2024/04/02 06:14:51;;;;;;;1.80;1.00;;;9.80;99.90;;;;;;5024304;28;20426;-73
2024/04/02 06:17:36;;;;;;;2.73;1.00;;;9.80;99.90;;;;;;5022892;28;20461;-73
2024/04/02 06:20:22;;;;;;;3.10;1.00;;;9.80;99.90;;;;;;5023619;28;20439;-73
2024/04/02 06:23:07;;;;;;;2.63;1.00;;;9.80;99.90;;;;;;5022093;28;20446;-73
2024/04/02 06:25:53;;;;;;;4.60;1.57;;;9.70;99.90;;;;;;5020366;28;20557;-73
2024/04/02 06:28:39;;;;;;;2.33;1.20;;;9.60;99.90;;;;;;5020646;28;20866;-73
2024/04/02 06:31:26;;;;;;;4.20;1.73;;;9.70;99.90;;;;;;5020238;28;20808;-74
2024/04/02 06:34:12;;;;;;;4.53;1.20;;;9.60;99.90;;;;;;5024838;28;20439;-72
2024/04/02 06:36:56;;;;;;;3.77;2.20;;;9.60;99.90;;;;;;5026490;28;20470;-73
2024/04/02 06:39:42;;;;;;;5.67;1.53;;;9.60;99.90;;;;;;5024230;28;20851;-73
2024/04/02 06:42:29;;;;;;;3.30;1.43;;;9.60;99.90;;;;;;5021245;28;20443;-73
2024/04/02 06:45:14;;;;;;;4.73;1.00;;;9.70;99.90;;;;;;5024354;28;20530;-73
2024/04/02 06:47:59;;;;;;;6.43;1.77;;;9.70;99.90;;;;;;5027036;28;20442;-74
2024/04/02 06:50:44;;;;;;;2.57;1.17;;;9.70;99.90;;;;;;5028400;28;20537;-73
2024/04/02 06:53:31;;;;;;;3.77;1.37;;;9.70;99.90;;;;;;5027776;28;20481;-72
2024/04/02 06:56:16;;;;;;;2.37;1.00;;;9.70;99.90;;;;;;5023384;28;20474;-74
2024/04/02 06:59:03;;;;;;;3.40;0.80;;;9.70;99.90;;;;;;5025058;28;20444;-73
2024/04/02 07:01:48;;;;;;;1.93;1.00;;;9.60;99.90;;;;;;5028375;28;20553;-73
2024/04/02 07:04:36;;;;;;;2.00;1.17;;;9.70;99.90;;;;;;5026903;28;20627;-73
2024/04/02 07:07:20;;;;;;;3.47;1.23;;;9.70;99.90;;;;;;5027078;28;20433;-73
2024/04/02 07:10:07;;;;;;;1.90;1.03;;;9.70;99.90;;;;;;5028995;28;20471;-72
2024/04/02 07:12:51;;;;;;;3.20;0.90;;;9.70;99.90;;;;;;5029152;28;20446;-73
2024/04/02 07:15:41;;;;;;;1.40;0.80;;;9.70;99.90;;;;;;5022905;28;20514;-73
2024/04/02 07:18:26;;;;;;;1.77;0.80;;;9.70;99.90;;;;;;5022313;28;20477;-73
2024/04/02 07:21:11;;;;;;;2.13;1.10;;;9.70;99.90;;;;;;5025589;28;20450;-73
2024/04/02 07:23:56;;;;;;;5.17;1.60;;;9.80;99.90;;;;;;5027004;28;20790;-73
2024/04/02 07:26:42;;;;;;;3.47;1.27;;;9.80;99.90;;;;;;5027337;28;20519;-73
2024/04/02 07:29:26;;;;;;;1.67;1.00;;;9.70;99.90;;;;;;5026464;28;20440;-73
2024/04/02 07:32:13;;;;;;;3.20;1.57;;;9.70;99.90;;;;;;5023598;28;20454;-73
2024/04/02 07:34:58;;;;;;;9.63;1.60;;;9.70;99.90;;;;;;5019317;28;20471;-72
2024/04/02 07:37:44;;;;;;;2.47;1.60;;;9.70;99.90;;;;;;5016923;28;20596;-73
2024/04/02 07:40:28;;;;;;;3.17;1.37;;;9.70;99.90;;;;;;5019266;28;20841;-73
2024/04/02 07:43:14;;;;;;;4.70;1.50;;;9.70;99.90;;;;;;5019327;28;20486;-73
2024/04/02 07:45:58;;;;;;;8.23;2.37;;;9.80;99.90;;;;;;5018490;28;20446;-73
2024/04/02 07:48:46;;;;;;;2.97;1.20;;;9.90;99.90;;;;;;5014990;28;20453;-73
2024/04/02 07:51:30;;;;;;;3.57;1.43;;;10.00;99.90;;;;;;5019007;28;20609;-73
2024/04/02 07:54:16;;;;;;;4.13;1.20;;;10.00;99.90;;;;;;5018958;28;20454;-73
2024/04/02 07:57:01;;;;;;;4.03;1.10;;;10.10;99.90;;;;;;5018329;28;20487;-73
2024/04/02 07:59:47;;;;;;;5.17;1.50;;;10.10;99.90;;;;;;5021802;28;20480;-73
2024/04/02 08:02:31;;;;;;;7.03;1.60;;;10.20;99.90;;;;;;5015547;28;21073;-72
2024/04/02 08:05:18;;;;;;;8.43;2.10;;;10.20;99.90;;;;;;5017057;28;20493;-72
2024/04/02 08:08:04;;;;;;;5.73;1.60;;;10.10;99.90;;;;;;5016421;28;20451;-74
2024/04/02 08:10:49;;;;;;;6.37;1.47;;;10.10;99.90;;;;;;5022584;28;20523;-72
2024/04/02 08:13:35;;;;;;;14.70;2.00;;;10.10;99.90;;;;;;5011504;28;20464;-73
2024/04/02 08:16:19;;;;;;;3.57;1.67;;;10.10;99.90;;;;;;5016801;28;20474;-73
2024/04/02 08:19:05;;;;;;;10.13;2.00;;;10.20;99.90;;;;;;5016725;28;20800;-73
2024/04/02 08:21:51;;;;;;;4.40;1.23;;;10.20;99.90;;;;;;5016819;28;20837;-73
2024/04/02 08:24:37;;;;;;;10.23;1.50;;;10.20;99.90;;;;;;5019785;28;20459;-74
2024/04/02 08:27:22;;;;;;;12.03;1.80;;;10.20;99.90;;;;;;5019036;28;20468;-73
2024/04/02 08:30:10;;;;;;;14.27;2.00;;;10.30;99.90;;;;;;5014344;28;20821;-73
2024/04/02 08:32:55;;;;;;;6.57;2.60;;;10.40;99.90;;;;;;5020782;28;20564;-73
2024/04/02 08:35:40;;;;;;;7.70;1.43;;;10.40;99.90;;;;;;5015316;28;20478;-72
2024/04/02 08:38:27;;;;;;;8.00;1.83;;;10.50;99.90;;;;;;5019331;28;20450;-73
2024/04/02 08:41:12;;;;;;;9.87;2.23;;;10.60;99.90;;;;;;5018306;28;20478;-73
2024/04/02 08:43:59;;;;;;;18.13;1.90;;;10.60;99.90;;;;;;5016697;28;20458;-73
2024/04/02 08:46:43;;;;;;;3.67;2.10;;;10.70;99.90;;;;;;5014533;28;20611;-73
2024/04/02 08:49:29;;;;;;;9.43;1.97;;;10.80;99.90;;;;;;5016663;28;20459;-72
2024/04/02 08:52:14;;;;;;;7.73;1.90;;;10.80;99.90;;;;;;5013114;28;20554;-73
2024/04/02 08:55:00;;;;;;;10.47;2.10;;;10.70;99.90;;;;;;5020730;28;20443;-73
2024/04/02 08:57:49;;;;;;;7.47;1.50;;;10.70;99.90;;;;;;5012510;28;20463;-73
2024/04/02 09:00:35;;;;;;;3.57;1.60;;;10.70;99.90;;;;;;5014789;28;20861;-73
2024/04/02 09:03:21;;;;;;;14.33;2.40;;;10.80;99.90;;;;;;5020554;28;20918;-74
2024/04/02 09:06:07;;;;;;;7.87;3.27;;;10.80;99.90;;;;;;5017087;28;20439;-74
2024/04/02 09:08:52;;;;;;;7.23;2.10;;;10.90;99.90;;;;;;5012860;28;20461;-73
2024/04/02 09:11:39;;;;;;;11.03;1.77;;;10.90;99.90;;;;;;5015194;28;20468;-73
2024/04/02 09:14:24;;;;;;;6.30;1.53;;;11.00;99.90;;;;;;5015681;28;20455;-73
2024/04/02 09:17:10;;;;;;;6.60;1.80;;;11.10;99.90;;;;;;5016713;28;20511;-73
2024/04/02 09:19:54;;;;;;;9.10;1.83;;;11.10;99.90;;;;;;5020527;28;20791;-73
2024/04/02 09:22:40;;;;;;;8.50;2.10;;;11.10;99.90;;;;;;5020899;28;20475;-73
2024/04/02 09:25:26;;;;;;;9.03;2.00;;;11.10;99.90;;;;;;5019990;28;20455;-73
2024/04/02 09:28:13;;;;;;;5.73;1.90;;;11.10;99.90;;;;;;5017225;28;20447;-72
2024/04/02 09:30:57;;;;;;;5.60;1.53;;;11.10;99.90;;;;;;5017028;28;20452;-73
2024/04/02 09:33:45;;;;;;;8.53;2.03;;;11.20;99.90;;;;;;5017666;28;20440;-72
2024/04/02 09:36:50;;;;;;;11.00;1.93;;;11.30;99.90;;;;;;5018423;28;20483;-73
2024/04/02 09:39:37;;;;;;;8.03;1.87;;;11.20;99.90;;;;;;5020940;28;20758;-73
2024/04/02 09:42:24;;;;;;;9.40;1.60;;;11.20;99.90;;;;;;5022165;28;21047;-73
2024/04/02 09:45:11;;;;;;;13.70;2.47;;;11.20;99.90;;;;;;5018779;28;20442;-73
2024/04/02 09:47:58;;;;;;;8.00;1.60;;;11.20;99.90;;;;;;5019848;28;20447;-73
2024/04/02 09:50:44;;;;;;;5.80;2.00;;;11.20;99.90;;;;;;5018400;28;20527;-73
2024/04/02 09:53:30;;;;;;;6.17;2.10;;;11.40;99.90;;;;;;5019552;28;20445;-73
2024/04/02 09:56:18;;;;;;;6.93;2.40;;;11.40;99.90;;;;;;5016773;28;21011;-73
2024/04/02 09:59:05;;;;;;;7.77;2.40;;;11.40;99.90;;;;;;5024206;28;20485;-73
2024/04/02 10:01:52;;;;;;;7.73;2.10;;;11.50;99.90;;;;;;5027904;28;20943;-73
2024/04/02 10:04:38;;;;;;;6.53;2.03;;;11.60;99.90;;;;;;5027188;28;20604;-73
2024/04/02 10:07:29;;;;;;;4.90;1.63;;;11.60;99.90;;;;;;5021008;28;20456;-73
2024/04/02 10:10:16;;;;;;;6.20;1.80;;;11.70;99.90;;;;;;5020008;28;21799;-73
2024/04/02 10:13:06;;;;;;;6.77;1.53;;;11.70;99.90;;;;;;5022807;28;20631;-73
2024/04/02 10:15:54;;;;;;;6.50;1.80;;;11.70;99.90;;;;;;5025154;28;20526;-73
2024/04/02 10:18:44;;;;;;;4.63;1.40;;;11.70;99.90;;;;;;5026115;28;20883;-73
2024/04/02 10:21:33;;;;;;;5.07;1.10;;;11.70;99.90;;;;;;5028302;28;20451;-73
2024/04/02 10:24:19;;;;;;;11.23;2.10;;;11.70;99.90;;;;;;5028315;28;20428;-73
2024/04/02 10:27:08;;;;;;;6.10;1.60;;;11.70;99.90;;;;;;5025453;28;20555;-73
2024/04/02 10:29:54;;;;;;;9.03;2.40;;;11.80;99.90;;;;;;5026440;28;20481;-74
2024/04/02 10:32:41;;;;;;;5.00;1.40;;;11.80;99.90;;;;;;5029218;28;20455;-71
2024/04/02 10:35:28;;;;;;;9.10;1.93;;;11.90;99.90;;;;;;5020300;28;20499;-72
2024/04/02 10:38:14;;;;;;;6.13;1.20;;;12.00;99.90;;;;;;5022109;28;20441;-71
2024/04/02 10:40:59;;;;;;;8.13;1.90;;;12.00;99.90;;;;;;5024879;28;20439;-71
2024/04/02 10:43:44;;;;;;;7.60;1.60;;;12.10;99.90;;;;;;5026119;28;20941;-72
2024/04/02 10:46:30;;;;;;;8.90;1.83;;;12.30;99.90;;;;;;5026087;28;20584;-72
2024/04/02 10:49:16;;;;;;;5.00;1.40;;;12.30;99.90;;;;;;5021702;28;20441;-73
2024/04/02 10:52:06;;;;;;;5.60;1.23;;;12.20;99.90;;;;;;5017896;28;20522;-74
2024/04/02 10:54:51;;;;;;;5.87;1.43;;;12.10;99.90;;;;;;5018982;28;20610;-73
2024/04/02 10:57:38;;;;;;;10.33;3.07;;;12.10;99.90;;;;;;5023287;28;20474;-73
2024/04/02 11:00:23;;;;;;;7.77;1.27;;;12.00;99.90;;;;;;5025013;28;20981;-73
2024/04/02 11:03:09;;;;;;;8.50;1.97;;;12.20;99.90;;;;;;5022975;28;21014;-73
2024/04/02 11:05:54;;;;;;;4.37;1.50;;;12.40;99.90;;;;;;5025335;28;20962;-73
2024/04/02 11:08:43;;;;;;;10.90;3.30;;;12.50;99.90;;;;;;5021172;28;20499;-73
2024/04/02 11:11:28;;;;;;;5.80;1.80;;;12.70;99.90;;;;;;5018760;28;20449;-73
2024/04/02 11:14:15;;;;;;;10.50;2.00;;;12.70;99.90;;;;;;5021361;28;20516;-73
2024/04/02 11:17:00;;;;;;;5.50;1.70;;;12.70;99.90;;;;;;5026007;28;20562;-74
2024/04/02 11:19:46;;;;;;;5.93;1.50;;;12.60;99.90;;;;;;5021605;28;20670;-73
2024/04/02 11:25:41;;;;;;;5.73;1.27;;;12.00;99.90;;;;;;5025280;28;20453;-74
2024/04/02 11:28:25;;;;;;;4.97;1.27;;;11.90;99.90;;;;;;5020577;28;20444;-72
2024/04/02 11:31:12;;;;;;;4.33;1.40;;;11.90;99.90;;;;;;5025251;28;20422;-73
2024/04/02 11:33:56;;;;;;;7.00;1.90;;;11.80;99.90;;;;;;5023132;28;20543;-73
2024/04/02 11:36:42;;;;;;;4.80;1.93;;;11.90;99.90;;;;;;5025015;28;20605;-72
2024/04/02 11:39:26;;;;;;;6.00;1.50;;;11.80;99.90;;;;;;5025512;28;20451;-73
2024/04/02 11:42:14;;;;;;;33.97;11.37;;;11.90;99.90;;;;;;5024220;28;20865;-73
2024/04/02 11:45:00;;;;;;;26.07;6.70;;;11.90;99.90;;;;;;5024013;28;20418;-73
2024/04/02 11:47:47;;;;;;;41.33;10.67;;;11.90;99.90;;;;;;5026824;28;20470;-73
2024/04/02 11:50:33;;;;;;;15.50;3.57;;;11.80;99.90;;;;;;5023813;28;20440;-74
2024/04/02 11:53:18;;;;;;;11.07;1.60;;;11.80;99.90;;;;;;5020508;28;20791;-73
2024/04/02 11:56:04;;;;;;;4.47;2.13;;;11.90;99.90;;;;;;5026359;28;20432;-73
2024/04/02 12:01:54;;;;;;;3.40;1.47;;;12.00;99.90;;;;;;5025167;28;20475;-72
2024/04/02 12:04:40;;;;;;;9.43;1.87;;;12.10;99.90;;;;;;5026030;28;20555;-74
2024/04/02 12:07:27;;;;;;;4.43;1.50;;;12.10;99.90;;;;;;5022090;28;20417;-73
2024/04/02 12:10:14;;;;;;;4.93;1.20;;;12.20;99.90;;;;;;5017547;28;20463;-73
2024/04/02 12:12:58;;;;;;;5.20;1.70;;;12.20;99.90;;;;;;5018287;28;21062;-73
2024/04/02 12:15:46;;;;;;;5.30;1.60;;;12.20;99.90;;;;;;5027102;28;20464;-73
2024/04/02 12:18:31;;;;;;;6.30;1.97;;;12.30;99.90;;;;;;5026775;28;20444;-73
2024/04/02 12:21:16;;;;;;;5.23;1.43;;;12.40;99.90;;;;;;5024672;28;20969;-73
2024/04/02 12:24:01;;;;;;;4.07;1.27;;;12.40;99.90;;;;;;5018202;28;20456;-73
2024/04/02 12:26:47;;;;;;;5.97;1.40;;;12.50;99.90;;;;;;5020726;28;21010;-73
2024/04/02 12:29:32;;;;;;;2.20;0.80;;;12.30;99.90;;;;;;5019623;28;20961;-73
2024/04/02 12:32:19;;;;;;;3.87;1.10;;;12.30;99.90;;;;;;5019458;28;20821;-72
2024/04/02 12:35:05;;;;;;;4.93;1.40;;;12.20;99.90;;;;;;5014292;28;20999;-73
2024/04/02 12:37:51;;;;;;;4.30;1.20;;;12.10;99.90;;;;;;5019630;28;20558;-73
2024/04/02 12:40:38;;;;;;;4.33;1.10;;;12.20;99.90;;;;;;5018763;28;20455;-73
2024/04/02 12:43:22;;;;;;;4.40;1.00;;;12.30;99.90;;;;;;5018891;28;20451;-73
2024/04/02 12:46:08;;;;;;;2.10;0.97;;;12.50;99.90;;;;;;5018014;28;20466;-73
2024/04/02 12:48:55;;;;;;;6.23;0.97;;;12.40;99.90;;;;;;5018183;28;20587;-73
2024/04/02 12:51:40;;;;;;;2.80;1.00;;;12.50;99.90;;;;;;5017837;28;20525;-73
2024/04/02 12:54:25;;;;;;;3.50;1.17;;;12.60;99.90;;;;;;5023331;28;20446;-73
2024/04/02 12:57:11;;;;;;;4.87;1.03;;;12.50;99.90;;;;;;5020432;28;20478;-73
2024/04/02 12:59:56;;;;;;;6.50;1.30;;;12.50;99.90;;;;;;5022969;28;20455;-74
2024/04/02 13:02:45;;;;;;;16.03;7.30;;;12.50;99.90;;;;;;5018060;28;20546;-73
2024/04/02 13:05:36;;;;;;;20.30;9.00;;;12.30;99.90;;;;;;5019104;28;20461;-72
2024/04/02 13:08:21;;;;;;;18.00;8.47;;;12.30;99.90;;;;;;5023119;28;20434;-73
2024/04/02 13:11:06;;;;;;;9.30;3.57;;;12.10;99.90;;;;;;5021073;28;20447;-75
2024/04/02 13:13:53;;;;;;;6.07;2.40;;;12.10;99.90;;;;;;5021669;28;20533;-73
2024/04/02 13:16:38;;;;;;;2.93;1.50;;;12.00;99.90;;;;;;5024223;28;20472;-73
2024/04/02 13:19:23;;;;;;;6.40;1.50;;;11.90;99.90;;;;;;5022966;28;20867;-72
2024/04/02 13:22:12;;;;;;;3.30;1.60;;;11.80;99.90;;;;;;5027834;28;20447;-73
2024/04/02 13:24:58;;;;;;;4.47;1.57;;;11.70;99.90;;;;;;5026182;28;20506;-73
2024/04/02 13:27:42;;;;;;;5.40;1.97;;;11.50;99.90;;;;;;5024931;28;20523;-72
2024/04/02 13:30:28;;;;;;;3.60;1.40;;;11.50;99.90;;;;;;5022801;28;20497;-72
2024/04/02 13:33:14;;;;;;;2.97;1.93;;;11.60;99.90;;;;;;5018559;28;20487;-72
2024/04/02 13:36:06;;;;;;;5.70;1.80;;;11.70;99.90;;;;;;5025605;28;21027;-73
2024/04/02 13:38:54;;;;;;;13.10;1.47;;;11.70;99.90;;;;;;5023814;28;20974;-72
2024/04/02 13:41:40;;;;;;;5.40;1.30;;;11.80;99.90;;;;;;5022236;28;20471;-72
2024/04/02 13:44:24;;;;;;;4.10;1.57;;;11.80;99.90;;;;;;5019876;28;21037;-71
2024/04/02 13:47:10;;;;;;;5.73;1.50;;;11.70;99.90;;;;;;5021668;28;20505;-73
2024/04/02 13:49:55;;;;;;;4.27;1.20;;;11.80;99.90;;;;;;5018622;28;21416;-72
2024/04/02 13:52:40;;;;;;;8.60;1.47;;;11.80;99.90;;;;;;5023550;28;21036;-71
2024/04/02 13:55:27;;;;;;;4.80;1.17;;;11.80;99.90;;;;;;5023492;28;20455;-72
2024/04/02 13:58:12;;;;;;;3.97;1.23;;;11.80;99.90;;;;;;5023374;28;20483;-72
2024/04/02 14:01:01;;;;;;;6.07;1.60;;;11.90;99.90;;;;;;5021769;28;20550;-72
2024/04/02 14:03:45;;;;;;;6.60;1.53;;;11.90;99.90;;;;;;5023927;28;20837;-72
2024/04/02 14:06:31;;;;;;;4.50;1.43;;;12.10;99.90;;;;;;5018820;28;20621;-73
2024/04/02 14:09:15;;;;;;;3.03;1.13;;;12.30;99.90;;;;;;5026885;28;20793;-71
2024/04/02 14:12:03;;;;;;;4.77;1.20;;;12.40;99.90;;;;;;5021269;28;20451;-72
2024/04/02 14:14:48;;;;;;;2.60;1.00;;;12.50;99.90;;;;;;5022845;28;20525;-71
2024/04/02 14:17:33;;;;;;;5.80;1.17;;;12.50;99.90;;;;;;5024109;28;20539;-72
2024/04/02 14:20:18;;;;;;;3.70;1.27;;;12.60;99.90;;;;;;5023749;28;20451;-72
2024/04/02 14:23:05;;;;;;;8.50;1.27;;;12.60;99.90;;;;;;5020222;28;20518;-72
2024/04/02 14:25:54;;;;;;;6.73;2.10;;;12.70;99.90;;;;;;5019901;28;20850;-71
2024/04/02 14:28:43;;;;;;;6.67;1.53;;;12.60;99.90;;;;;;5022679;28;20555;-72
2024/04/02 14:31:28;;;;;;;6.07;1.43;;;12.50;99.90;;;;;;5023365;28;20558;-72
2024/04/02 14:34:14;;;;;;;7.10;2.10;;;12.50;99.90;;;;;;5022748;28;20452;-71